Briefing drone pour Fourchambault

Rechercher une autre localisation

Conditions de vol :


Nous sommes le : Vendredi 25 juin 2021
Il est 00:43 UTC (02:43 LT)

Lever de soleil : 03:27 UTC (05:27 LT)
Coucher de soleil : 20:12 UTC (22:12 LT)

Météo

L'essentiel des conditions de vol

VIGILANCE MÉTÉO FRANCE - Nièvre (58)
Pas de vigilances particulieres
CARTE TEMSI
CARTES DES FRONTS
METAR de LFQG
LFQG 241800Z AUTO VRB01KT CAVOK 19/11 Q1022

Date d'émission: 24/06/2021
Heure d'émission: 18:00 UTC
Vent: Variable 1 KT (2 km/h)
Visibilité horizontale: > 10 km
Plafond : Plafond et visibilité OK (CAVOK)
Température: 19 °C
Point de rosée: 11 °C
Humidité: 60%
Pression (QNH): 1022 hPa
Prévision 24h pour Nevers (5 km)
Vent : 87° pour 1 KT (3 km/h)
Temperature Maxi: 14 °C
Temperature Min: 14 °C
Humidité : 74%
Condition : Peu nuageux



Warning: count(): Parameter must be an array or an object that implements Countable in /homepages/6/d509196549/htdocs/droneoxygene/briefing.php on line 743
WEBCAM POUR FOURCHAMBAULT

Réglementation

Voler en sécurité

CARTES AERONAUTIQUE 1/500.000
CARTES VAC (LFQG)
SUP AIP




Chargement des AIP...
NOTAM (FOURCHAMBAULT + Terrain à proximité / FIR )




Chargement des NOTAMS...
CONTACT PREFECTURE 58


Avertissement : Les données mises à disposition sont indicatives. Oxygène Drone ne pourra être tenu responsable de dégâts causés aux biens et aux personnes.